• Join FlightAware (Why Join?)
  • Login
  • US Flag 
10:23PM EDT


 

Airport Tracker/Info


-or-


 

Live Flight TrackerFlight Track Log ✈ UAE35 ✈ 03-May-2013 ✈ OMDB / DXB - EGNT / NCL

Flight Track Log - Related Links

Times and Time Zones

All times are in EDT time to prevent confusion due to time zone crossing. See the UAE35 flight status page for this flight to view local times or setup timezone preferences in your user account.

Time Position Orientation Groundspeed Altitude Reporting Facility
EDT Latitude Longitude Course Direction KTS MPH feet Rate Location/Type
11:40PM 25.2630 55.3530 304° West 190 219 200  Level FlightAware
11:41PM 25.2730 55.3360 303° West 200 230 900 2,400 Climbing FlightAware
11:43PM 25.4406 55.1892 322° Northwest  Level Estimated
11:44PM 25.5337 55.1074 322° Northwest  Level Estimated
11:45PM 25.6267 55.0255 322° Northwest  Level Estimated
11:46PM 25.7197 54.9435 322° Northwest  Level Estimated
11:47PM 25.8115 54.8623 321° Northwest  Level Estimated
11:48PM 25.9033 54.7810 321° Northwest  Level Estimated
11:48PM 25.4070 54.6830 321° Northwest 398 458 18,800  Level FlightAware
11:49PM 25.4230 54.6160 285° West 398 458 18,800  Level FlightAware
11:49PM 25.4430 54.5330 285° West 398 458 18,800  Level FlightAware
11:50PM 25.4600 54.4660 286° West 398 458 18,800  Level FlightAware
11:51PM 25.4760 54.3990 285° West 398 458 18,800 6,660 Level FlightAware
11:52PM 25.5190 54.2270 286° West 429 494 28,300 6,960 Climbing FlightAware
11:52PM 25.5370 54.1520 285° West 430 495 28,700 1,860 Climbing FlightAware
11:53PM 25.5610 54.0530 285° West 429 494 31,000 2,700 Climbing FlightAware
11:54PM 25.5830 53.9620 285° West 419 482 32,600 1,860 Climbing FlightAware
11:54PM 25.6050 53.8700 285° West 420 483 33,700 1,260 Climbing FlightAware
11:55PM 25.6260 53.7830 285° West 425 489 34,400 1,200 Climbing FlightAware
11:56PM 25.6460 53.6980 285° West 425 489 35,300 1,080 Climbing FlightAware
11:56PM 25.6680 53.6050 285° West 429 494 36,000 480 Climbing FlightAware
11:57PM 25.6890 53.5180 285° West 429 494 36,000  Level FlightAware
11:58PM 25.7090 53.4310 284° West 429 494 36,000  Level FlightAware
11:59PM 25.7320 53.3360 285° West 430 495 36,000  Level FlightAware
11:59PM 25.7470 53.2490 281° West 423 487 36,000  Level FlightAware
12:00AM 25.7570 53.1530 277° West 422 486 36,000  Level FlightAware
12:01AM 25.7710 53.0670 280° West 432 497 36,000  Level FlightAware
12:01AM 25.8120 52.9740 296° West 441 507 36,000  Level FlightAware
12:02AM 25.8500 52.8970 299° West 441 507 36,000  Level FlightAware
12:03AM 25.8890 52.8160 298° West 440 506 36,000  Level FlightAware
12:03AM 25.9320 52.7270 298° West 440 506 36,000  Level FlightAware
12:04AM 25.9700 52.6470 298° West 437 503 36,000  Level FlightAware
12:05AM 26.0120 52.5580 298° West 436 502 36,000  Level FlightAware
12:06AM 26.0510 52.4780 298° West 435 501 36,000  Level FlightAware
12:06AM 26.0860 52.4040 298° West 433 498 36,000  Level FlightAware
12:07AM 26.1310 52.3080 298° West 434 499 36,000  Level FlightAware
12:08AM 26.1680 52.2320 298° West 440 506 36,000  Level FlightAware
12:08AM 26.2140 52.1460 301° West 439 505 36,000  Level FlightAware
12:09AM 26.2610 52.0640 303° West 446 513 36,000  Level FlightAware
12:10AM 26.3060 51.9890 304° West 446 513 36,000  Level FlightAware
12:12AM 26.4717 51.8426 322° Northwest  Level Estimated
12:12AM 26.4320 51.7750 322° Northwest 444 511 36,000  Level FlightAware
12:12AM 26.4710 51.7070 303° West 444 511 36,000  Level FlightAware
12:14AM 26.5760 51.5270 303° West 448 516 36,000  Level FlightAware
12:14AM 26.6200 51.4500 303° West 448 516 36,000  Level FlightAware
12:15AM 26.6730 51.3590 303° West 448 516 36,000  Level FlightAware
12:16AM 26.7180 51.2820 303° West 448 516 36,000  Level FlightAware
12:17AM 26.7670 51.1960 303° West 448 516 36,000  Level FlightAware
12:17AM 26.8130 51.1150 302° West 447 514 36,000  Level FlightAware
12:18AM 26.8580 51.0380 303° West 446 513 36,000  Level FlightAware
12:19AM 26.9000 50.9630 302° West 447 514 36,000  Level FlightAware
12:19AM 26.9440 50.8870 303° West 445 512 36,000  Level FlightAware
12:20AM 27.0010 50.7870 303° West 439 505 36,000  Level FlightAware
12:21AM 27.0420 50.7150 303° West 437 503 36,000  Level FlightAware
12:21AM 27.0880 50.6330 302° West 439 505 36,000  Level FlightAware
12:22AM 27.1430 50.5350 302° West 438 504 36,000  Level FlightAware
12:23AM 27.2060 50.4210 302° West 438 504 36,000  Level FlightAware
12:24AM 27.2420 50.3550 302° West 438 504 36,000  Level FlightAware
12:25AM 27.2770 50.2890 301° West 438 504 36,000  Level FlightAware
12:25AM 27.3130 50.2220 301° West 438 504 36,000  Level FlightAware
12:26AM 27.3480 50.1560 301° West 438 504 36,000  Level FlightAware
12:27AM 27.3930 50.0730 301° West 438 504 36,000  Level FlightAware
12:27AM 27.4280 50.0060 300° West 438 504 36,000  Level FlightAware
12:28AM 27.4640 49.9390 301° West 438 504 36,000  Level FlightAware
12:29AM 27.4990 49.8730 301° West 438 504 36,000  Level FlightAware
12:29AM 27.5350 49.8060 301° West 438 504 36,000  Level FlightAware
12:30AM 27.5790 49.7230 301° West 438 504 36,000  Level FlightAware
12:31AM 27.7440 49.5550 318° Northwest 36,000  Level FlightAware
12:32AM 27.8340 49.4840 325° Northwest 476 548 36,000  Level FlightAware
12:33AM 27.9270 49.4080 324° Northwest 475 547 36,000  Level FlightAware
12:34AM 28.0160 49.3410 326° Northwest 483 556 36,000  Level FlightAware
12:34AM 28.1160 49.2700 328° Northwest 480 552 36,000  Level FlightAware
12:35AM 28.1920 49.2140 327° Northwest 480 552 36,000  Level FlightAware
12:36AM 28.2480 49.1770 330° Northwest 481 554 36,000  Level FlightAware
12:36AM 28.3120 49.1310 328° Northwest 481 554 36,000  Level FlightAware
12:38AM 28.4570 49.0310 329° Northwest 477 549 36,000  Level FlightAware
12:38AM 28.5210 48.9870 329° Northwest 474 545 36,000  Level FlightAware
12:39AM 28.6300 48.9100 328° Northwest 474 545 36,000  Level FlightAware
12:40AM 28.7050 48.8580 329° Northwest 477 549 36,000  Level FlightAware
12:41AM 28.8040 48.7870 328° Northwest 478 550 36,000  Level FlightAware
12:41AM 28.8780 48.7360 329° Northwest 483 556 36,000  Level FlightAware
12:42AM 28.9360 48.6950 328° Northwest 485 558 36,000  Level FlightAware
12:43AM 29.0660 48.6030 328° Northwest 486 559 36,000  Level FlightAware
12:43AM 29.1280 48.5590 328° Northwest 487 560 36,000  Level FlightAware
12:44AM 29.2200 48.4940 328° Northwest 488 562 36,000  Level FlightAware
12:45AM 29.3200 48.4230 328° Northwest 489 563 36,000  Level FlightAware
12:46AM 29.4020 48.3640 328° Northwest 489 563 36,000  Level FlightAware
12:46AM 29.4340 48.3410 328° Northwest 489 563 36,000  Level FlightAware
12:47AM 29.5400 48.2660 328° Northwest 491 565 36,000  Level FlightAware
12:48AM 29.6250 48.2050 328° Northwest 495 570 36,000  Level FlightAware
12:49AM 29.7160 48.1370 327° Northwest 495 570 36,000  Level FlightAware
12:49AM 29.7810 48.0890 327° Northwest 495 570 36,000  Level FlightAware
12:50AM 29.8460 48.0400 327° Northwest 495 570 36,000  Level FlightAware
12:51AM 29.9120 47.9910 327° Northwest 495 570 36,000  Level FlightAware
12:51AM 30.0430 47.8890 326° Northwest 481 554 36,000  Level FlightAware
12:52AM 30.1070 47.8050 311° West 475 547 36,000  Level FlightAware
12:53AM 30.1600 47.7370 312° West 476 548 36,000  Level FlightAware
12:54AM 30.2200 47.6630 313° West 476 548 36,000  Level FlightAware
12:54AM 30.2810 47.6100 323° Northwest 485 558 36,000  Level FlightAware
12:55AM 30.3380 47.5510 318° Northwest 485 558 36,000  Level FlightAware
12:56AM 30.3940 47.4920 318° Northwest 485 558 36,000  Level FlightAware
12:56AM 30.4650 47.4180 318° Northwest 485 558 36,000  Level FlightAware
12:57AM 30.6060 47.3070 326° Northwest 493 567 36,000  Level FlightAware
12:58AM 30.6660 47.2490 320° Northwest 493 567 36,000  Level FlightAware
12:59AM 30.7690 47.1520 321° Northwest 489 563 36,000  Level FlightAware
01:00AM 30.8700 47.0560 321° Northwest 485 558 36,000  Level FlightAware
01:01AM 30.9290 46.9990 320° Northwest 485 558 36,000  Level FlightAware
01:01AM 30.9870 46.9420 320° Northwest 485 558 36,000  Level FlightAware
01:02AM 31.0600 46.8700 320° Northwest 485 558 36,000  Level FlightAware
01:03AM 31.1180 46.8130 320° Northwest 485 558 36,000  Level FlightAware
01:03AM 31.1770 46.7560 320° Northwest 485 558 36,000  Level FlightAware
01:04AM 31.2350 46.6980 319° Northwest 485 558 36,000  Level FlightAware
01:05AM 31.2940 46.6410 320° Northwest 485 558 36,000  Level FlightAware
01:05AM 31.3520 46.5830 320° Northwest 485 558 36,000  Level FlightAware
01:06AM 31.4250 46.5120 320° Northwest 485 558 36,000  Level FlightAware
01:07AM 31.4840 46.4540 320° Northwest 485 558 36,000  Level FlightAware
01:08AM 31.5420 46.3970 320° Northwest 485 558 36,000  Level FlightAware
01:08AM 31.6010 46.3390 320° Northwest 485 558 36,000  Level FlightAware
01:09AM 31.6740 46.2670 320° Northwest 485 558 36,000  Level FlightAware
01:12AM 31.8936 46.0449 319° Northwest  Level Estimated
01:13AM 31.9825 45.9546 319° Northwest  Level Estimated
01:13AM 32.3310 45.6300 319° Northwest 492 566 36,000  Level FlightAware
01:14AM 32.0713 45.8640 319° Northwest  Level Estimated
01:14AM 32.3990 45.5590 319° Northwest 492 566 36,000  Level FlightAware
01:15AM 32.4580 45.4990 319° Northwest 492 566 36,000  Level FlightAware
01:16AM 32.5570 45.4030 321° Northwest 486 559 36,000  Level FlightAware
01:16AM 32.6140 45.3450 319° Northwest 485 558 36,000  Level FlightAware
01:17AM 32.7040 45.2550 320° Northwest 483 556 36,000  Level FlightAware
01:18AM 32.7710 45.1870 320° Northwest 480 552 36,000  Level FlightAware
01:18AM 32.8400 45.1180 320° Northwest 480 552 36,000  Level FlightAware
01:19AM 32.9150 45.0420 320° Northwest 481 554 36,000  Level FlightAware
01:20AM 32.9820 44.9730 319° Northwest 482 555 36,000  Level FlightAware
01:20AM 33.0500 44.9030 319° Northwest 485 558 36,000  Level FlightAware
01:21AM 33.1260 44.8260 320° Northwest 484 557 36,000  Level FlightAware
01:22AM 33.1940 44.7580 320° Northwest 486 559 36,000  Level FlightAware
01:23AM 33.2870 44.7070 335° Northwest 486 559 36,000  Level FlightAware
01:23AM 33.3730 44.6750 343° North 489 563 36,000  Level FlightAware
01:24AM 33.4690 44.6410 344° North 490 564 36,000  Level FlightAware
01:25AM 33.5580 44.6040 341° North 487 560 36,000  Level FlightAware
01:25AM 33.6400 44.5650 338° Northwest 485 558 36,000  Level FlightAware
01:26AM 33.7350 44.5180 338° Northwest 483 556 36,000  Level FlightAware
01:27AM 33.8150 44.4790 338° Northwest 483 556 36,000  Level FlightAware
01:27AM 33.9080 44.4320 337° Northwest 483 556 36,000  Level FlightAware
01:28AM 33.9920 44.3910 338° Northwest 484 557 36,000  Level FlightAware
01:29AM 34.0780 44.3480 338° Northwest 484 557 36,000  Level FlightAware
01:29AM 34.1490 44.3130 338° Northwest 483 556 36,000  Level FlightAware
01:30AM 34.2510 44.2620 338° Northwest 480 552 36,000  Level FlightAware
01:31AM 34.3440 44.2160 338° Northwest 481 554 36,000  Level FlightAware
01:32AM 34.4260 44.1750 338° Northwest 481 554 36,000  Level FlightAware
01:32AM 34.5110 44.1320 337° Northwest 478 550 36,000  Level FlightAware
01:33AM 34.6010 44.0850 337° Northwest 476 548 36,000  Level FlightAware
01:34AM 34.6820 44.0430 337° Northwest 474 545 36,000  Level FlightAware
01:34AM 34.7740 43.9940 336° Northwest 476 548 36,000  Level FlightAware
01:35AM 34.8520 43.9530 337° Northwest 478 550 36,000  Level FlightAware
01:36AM 34.9340 43.9100 337° Northwest 478 550 36,000  Level FlightAware
01:37AM 35.0260 43.8610 336° Northwest 480 552 36,000  Level FlightAware
01:37AM 35.1080 43.8180 337° Northwest 481 554 36,000  Level FlightAware
01:38AM 35.2020 43.7680 337° Northwest 483 556 36,000  Level FlightAware
01:39AM 35.2840 43.7250 337° Northwest 484 557 36,000  Level FlightAware
01:39AM 35.3630 43.6820 336° Northwest 481 554 36,000  Level FlightAware
01:40AM 35.4550 43.6330 337° Northwest 475 547 36,000  Level FlightAware
01:41AM 35.5360 43.5900 337° Northwest 473 544 36,000  Level FlightAware
01:41AM 35.6160 43.5470 336° Northwest 472 543 36,000  Level FlightAware
01:42AM 35.7090 43.4970 336° Northwest 473 544 36,000  Level FlightAware
01:43AM 35.7860 43.4560 337° Northwest 476 548 36,000  Level FlightAware
01:44AM 35.8780 43.4060 336° Northwest 476 548 36,000  Level FlightAware
01:44AM 35.9590 43.3620 336° Northwest 477 549 36,000  Level FlightAware
01:45AM 36.0510 43.3120 336° Northwest 478 550 36,000  Level FlightAware
01:46AM 36.1290 43.2700 336° Northwest 477 549 36,000  Level FlightAware
01:46AM 36.2100 43.2250 336° Northwest 478 550 36,000  Level FlightAware
01:47AM 36.3030 43.1740 336° Northwest 480 552 36,000  Level FlightAware
01:48AM 36.3830 43.1300 336° Northwest 481 554 36,000  Level FlightAware
01:48AM 36.4660 43.0840 336° Northwest 479 551 36,000  Level FlightAware
01:49AM 36.5560 43.0340 336° Northwest 480 552 36,000  Level FlightAware
01:50AM 36.6370 42.9890 336° Northwest 480 552 36,000  Level FlightAware
01:51AM 36.7300 42.9370 336° Northwest 480 552 36,000  Level FlightAware
01:51AM 36.8110 42.8920 336° Northwest 480 552 36,000  Level FlightAware
01:52AM 36.9010 42.8430 336° Northwest 482 555 36,000  Level FlightAware
01:53AM 36.9820 42.7980 336° Northwest 483 556 36,000  Level FlightAware
01:53AM 37.0670 42.7510 336° Northwest 483 556 36,000  Level FlightAware
01:54AM 37.1580 42.7000 336° Northwest 483 556 36,000  Level FlightAware
01:55AM 37.2260 42.6320 321° Northwest 480 552 36,000  Level FlightAware
01:55AM 37.2850 42.5280 306° West 479 551 36,000  Level FlightAware
01:56AM 37.3330 42.4400 304° West 480 552 36,000  Level FlightAware
01:57AM 37.3840 42.3460 304° West 480 552 36,000  Level FlightAware
01:58AM 37.4400 42.2420 304° West 478 550 36,000  Level FlightAware
01:58AM 37.4900 42.1490 304° West 478 550 36,000  Level FlightAware
01:59AM 37.5390 42.0570 304° West 473 544 36,000  Level FlightAware
02:00AM 37.5930 41.9570 304° West 469 540 36,000  Level FlightAware
02:00AM 37.6410 41.8670 304° West 469 540 36,000  Level FlightAware
02:01AM 37.6960 41.7630 304° West 467 537 36,000  Level FlightAware
02:02AM 37.7460 41.6700 304° West 469 540 36,000  Level FlightAware
02:02AM 37.7910 41.5850 304° West 470 541 36,000  Level FlightAware
02:03AM 37.8480 41.4780 304° West 471 542 36,000  Level FlightAware
02:04AM 37.9080 41.3630 303° West 470 541 36,000  Level FlightAware
02:05AM 37.9480 41.2840 303° West 470 541 36,000  Level FlightAware
02:05AM 37.9880 41.2060 303° West 470 541 36,000  Level FlightAware
02:06AM 38.0290 41.1270 303° West 470 541 36,000  Level FlightAware
02:07AM 38.0790 41.0290 303° West 470 541 36,000  Level FlightAware
02:08AM 38.1190 40.9500 303° West 470 541 36,000  Level FlightAware
02:08AM 38.1590 40.8710 303° West 470 541 36,000  Level FlightAware
02:09AM 38.2000 40.7920 303° West 470 541 36,000  Level FlightAware
02:10AM 38.2400 40.7130 303° West 470 541 36,000  Level FlightAware
02:10AM 38.2900 40.6140 303° West 470 541 36,000  Level FlightAware
02:11AM 38.3300 40.5350 303° West 470 541 36,000  Level FlightAware
02:12AM 38.3710 40.4560 304° West 470 541 36,000  Level FlightAware
02:12AM 38.4110 40.3770 303° West 470 541 36,000  Level FlightAware
02:13AM 38.4510 40.2980 303° West 470 541 36,000  Level FlightAware
02:16AM 38.6537 40.0336 315° West  Level Estimated
02:17AM 38.7357 39.9260 314° West  Level Estimated
02:18AM 38.8177 39.8181 314° West  Level Estimated
02:19AM 38.8995 39.7100 314° West  Level Estimated
02:20AM 38.9812 39.6016 314° West  Level Estimated
02:21AM 39.0628 39.4930 314° West  Level Estimated
02:22AM 39.1443 39.3842 314° West  Level Estimated
02:23AM 39.2258 39.2750 314° West  Level Estimated
02:24AM 39.3071 39.1657 314° West  Level Estimated
02:25AM 39.3883 39.0560 314° West  Level Estimated
02:26AM 39.4694 38.9462 314° West  Level Estimated
02:27AM 39.5504 38.8360 314° West  Level Estimated
02:28AM 39.6313 38.7256 314° West  Level Estimated
02:29AM 39.7121 38.6150 314° West  Level Estimated
02:30AM 39.7928 38.5041 313° West  Level Estimated
02:31AM 39.8734 38.3929 313° West  Level Estimated
02:32AM 39.9539 38.2815 313° West  Level Estimated
02:33AM 40.0342 38.1698 313° West  Level Estimated
02:34AM 40.1145 38.0578 313° West  Level Estimated
02:35AM 40.1947 37.9456 313° West  Level Estimated
02:36AM 40.2747 37.8331 313° West  Level Estimated
02:37AM 40.3547 37.7204 313° West  Level Estimated
02:38AM 40.4345 37.6073 313° West  Level Estimated
02:39AM 40.5142 37.4940 313° West  Level Estimated
02:40AM 40.5938 37.3805 313° West  Level Estimated
02:41AM 40.6733 37.2667 313° West  Level Estimated
02:42AM 40.7527 37.1526 313° West  Level Estimated
02:43AM 40.8320 37.0382 313° West  Level Estimated
02:44AM 40.9112 36.9235 312° West  Level Estimated
02:45AM 40.9902 36.8086 312° West  Level Estimated
02:46AM 41.0691 36.6934 312° West  Level Estimated
02:47AM 41.1479 36.5779 312° West  Level Estimated
02:48AM 41.2267 36.4622 312° West  Level Estimated
02:49AM 41.3052 36.3461 312° West  Level Estimated
02:50AM 41.3837 36.2298 312° West  Level Estimated
02:51AM 41.4621 36.1133 312° West  Level Estimated
02:51AM 41.2070 34.4430 312° West 490 564 36,000  Level FlightAware
02:52AM 41.5403 35.9964 312° West  Level Estimated
02:52AM 41.2510 34.3370 299° West 490 564 36,000  Level FlightAware
02:53AM 41.3010 34.2200 300° West 488 562 36,000  Level FlightAware
02:54AM 41.3610 34.0760 299° West 487 560 36,000  Level FlightAware
02:54AM 41.4050 33.9730 300° West 486 559 36,000  Level FlightAware
02:55AM 41.4540 33.8550 299° West 485 558 36,000  Level FlightAware
02:56AM 41.4970 33.7510 299° West 485 558 36,000  Level FlightAware
02:56AM 41.5400 33.6480 299° West 486 559 36,000  Level FlightAware
02:57AM 41.5880 33.5300 299° West 485 558 36,000  Level FlightAware
02:58AM 41.6320 33.4250 299° West 483 556 36,000  Level FlightAware
02:58AM 41.6800 33.3080 299° West 481 554 36,000  Level FlightAware
02:59AM 41.7230 33.2020 299° West 479 551 36,000  Level FlightAware
03:00AM 41.7610 33.1070 298° West 479 551 36,000  Level FlightAware
03:01AM 41.8320 32.9330 299° West 478 550 36,000  Level FlightAware
03:03AM 41.9670 32.5970 298° West 475 547 36,000  Level FlightAware
03:05AM 42.1020 32.2570 298° West 476 548 36,000  Level FlightAware
03:06AM 42.1370 32.1680 298° West 476 548 36,000  Level FlightAware
03:07AM 42.1720 32.0790 298° West 476 548 36,000  Level FlightAware
03:07AM 42.2080 31.9890 298° West 476 548 36,000  Level FlightAware
03:08AM 42.2510 31.8780 298° West 476 548 36,000  Level FlightAware
03:09AM 42.3150 31.7130 298° West 469 540 36,000  Level FlightAware
03:10AM 42.3610 31.5940 298° West 467 537 36,000  Level FlightAware
03:10AM 42.4130 31.4590 298° West 468 539 36,000  Level FlightAware
03:12AM 42.4890 31.2570 297° West 472 543 36,000  Level FlightAware
03:12AM 42.5360 31.1360 298° West 468 539 36,000  Level FlightAware
03:13AM 42.5700 31.0410 296° West 468 539 36,000  Level FlightAware
03:14AM 42.6030 30.9510 297° West 468 539 36,000  Level FlightAware
03:15AM 42.6880 30.7330 298° West 36,000  Level FlightAware
03:16AM 42.7460 30.5750 297° West 469 540 36,000  Level FlightAware
03:17AM 42.8000 30.4580 302° West 471 542 36,000  Level FlightAware
03:17AM 42.8360 30.3730 300° West 471 542 36,000  Level FlightAware
03:18AM 42.8820 30.2630 300° West 471 542 36,000  Level FlightAware
03:19AM 42.9190 30.1760 300° West 471 542 36,000  Level FlightAware
03:21AM 43.0527 29.9698 312° West  Level Estimated
03:21AM 43.0910 29.7870 312° West 469 540 36,000  Level FlightAware
03:22AM 43.1280 29.6990 300° West 469 540 36,000  Level FlightAware
03:22AM 43.1650 29.6120 300° West 469 540 36,000  Level FlightAware
03:23AM 43.2020 29.5240 300° West 469 540 36,000  Level FlightAware
03:24AM 43.2390 29.4370 300° West 469 540 36,000  Level FlightAware
03:24AM 43.2750 29.3490 299° West 469 540 36,000  Level FlightAware
03:25AM 43.3650 29.1450 301° West 474 545 36,000  Level FlightAware
03:26AM 43.4020 29.0560 300° West 474 545 36,000  Level FlightAware
03:27AM 43.4390 28.9670 300° West 474 545 36,000  Level FlightAware
03:27AM 43.5090 28.7990 300° West 472 543 36,000  Level FlightAware
03:28AM 43.5460 28.7090 300° West 472 543 36,000  Level FlightAware
03:29AM 43.5820 28.6190 299° West 472 543 36,000  Level FlightAware
03:30AM 43.6270 28.5070 299° West 472 543 36,000  Level FlightAware
03:30AM 43.6630 28.4170 299° West 472 543 36,000 60 Level FlightAware
03:31AM 43.7450 28.2260 301° West 475 547 36,100 660 Climbing FlightAware
03:32AM 43.8030 28.0820 299° West 475 547 37,300 720 Climbing FlightAware
03:33AM 43.8400 27.9910 299° West 475 547 37,300 420 Level FlightAware
03:34AM 43.9120 27.8140 299° West 460 529 38,000 420 Climbing FlightAware
03:34AM 43.9500 27.7190 299° West 460 529 38,000  Level FlightAware
03:35AM 43.9970 27.6060 300° West 463 533 38,000  Level FlightAware
03:36AM 44.0650 27.4620 303° West 464 534 38,000  Level FlightAware
03:37AM 44.1500 27.2900 305° West 464 534 38,000  Level FlightAware
03:38AM 44.1910 27.2050 304° West 464 534 38,000  Level FlightAware
03:39AM 44.2320 27.1210 304° West 464 534 38,000  Level FlightAware
03:39AM 44.2720 27.0370 304° West 464 534 38,000  Level FlightAware
03:40AM 44.3230 26.9310 304° West 464 534 38,000  Level FlightAware
03:41AM 44.3920 26.7840 303° West 469 540 38,000  Level FlightAware
03:42AM 44.4670 26.6250 304° West 469 540 38,000  Level FlightAware
03:42AM 44.5070 26.5380 303° West 469 540 38,000  Level FlightAware
03:43AM 44.5480 26.4510 303° West 469 540 38,000  Level FlightAware
03:44AM 44.6180 26.3050 304° West 468 539 38,000  Level FlightAware
03:44AM 44.6650 26.2030 303° West 468 539 38,000  Level FlightAware
03:45AM 44.7060 26.1160 304° West 468 539 38,000  Level FlightAware
03:46AM 44.7460 26.0290 303° West 468 539 38,000  Level FlightAware
03:47AM 44.8190 25.8730 303° West 470 541 38,000  Level FlightAware
03:47AM 44.8590 25.7830 302° West 470 541 38,000  Level FlightAware
03:48AM 44.8980 25.6940 302° West 470 541 38,000  Level FlightAware
03:49AM 44.9470 25.5840 302° West 470 541 38,000  Level FlightAware
03:49AM 44.9860 25.4950 302° West 470 541 38,000  Level FlightAware
03:50AM 45.0250 25.4060 302° West 470 541 38,000  Level FlightAware
03:51AM 45.0650 25.3180 303° West 470 541 38,000  Level FlightAware
03:51AM 45.1040 25.2290 302° West 470 541 38,000  Level FlightAware
03:52AM 45.1430 25.1400 302° West 470 541 38,000  Level FlightAware
03:53AM 45.1820 25.0510 302° West 470 541 38,000  Level FlightAware
03:54AM 45.2310 24.9400 302° West 470 541 38,000  Level FlightAware
03:54AM 45.2700 24.8510 302° West 470 541 38,000  Level FlightAware
03:55AM 45.4130 24.5550 305° West 485 558 38,000  Level FlightAware
03:56AM 45.4520 24.4660 302° West 485 558 38,000  Level FlightAware
03:56AM 45.5190 24.3130 302° West 486 559 38,000  Level FlightAware
03:57AM 45.5550 24.2300 302° West 487 560 38,000  Level FlightAware
03:58AM 45.6150 24.0910 302° West 487 560 38,000  Level FlightAware
03:58AM 45.6600 23.9870 302° West 487 560 38,000  Level FlightAware
03:59AM 45.7160 23.8580 302° West 487 560 38,000  Level FlightAware
04:00AM 45.7620 23.7510 302° West 487 560 38,000  Level FlightAware
04:01AM 45.8080 23.6430 301° West 489 563 38,000  Level FlightAware
04:01AM 45.8620 23.5150 301° West 490 564 38,000  Level FlightAware
04:02AM 45.9090 23.4030 301° West 490 564 38,000  Level FlightAware
04:03AM 45.9630 23.2770 302° West 490 564 38,000  Level FlightAware
04:03AM 46.0080 23.1690 301° West 489 563 38,000  Level FlightAware
04:04AM 46.0510 23.0670 301° West 488 562 38,000  Level FlightAware
04:05AM 46.1070 22.9330 301° West 483 556 38,000  Level FlightAware
04:05AM 46.1520 22.8220 300° West 480 552 38,000  Level FlightAware
04:06AM 46.2040 22.6960 301° West 478 550 38,000  Level FlightAware
04:07AM 46.2490 22.5860 301° West 477 549 38,000  Level FlightAware
04:08AM 46.2940 22.4770 301° West 477 549 38,000  Level FlightAware
04:08AM 46.3460 22.3510 301° West 477 549 38,000  Level FlightAware
04:09AM 46.3900 22.2420 300° West 478 550 38,000  Level FlightAware
04:10AM 46.4320 22.1380 300° West 480 552 38,000  Level FlightAware
04:10AM 46.4850 22.0050 300° West 480 552 38,000  Level FlightAware
04:11AM 46.5290 21.8950 300° West 480 552 38,000  Level FlightAware
04:12AM 46.5790 21.7710 300° West 478 550 38,000  Level FlightAware
04:12AM 46.6110 21.6910 300° West 480 552 38,000  Level FlightAware
04:13AM 46.6890 21.4990 301° West 485 558 38,000  Level FlightAware
04:16AM 46.8442 21.2121 308° West  Level Estimated
04:16AM 46.8870 21.1430 308° West 487 560 38,000  Level FlightAware
04:17AM 46.9940 20.9510 309° West 484 557 38,000  Level FlightAware
04:18AM 47.0920 20.7740 309° West 484 557 38,000  Level FlightAware
04:20AM 47.2250 20.5320 309° West 485 558 38,000  Level FlightAware
04:20AM 47.2830 20.4270 309° West 484 557 38,000  Level FlightAware
04:21AM 47.3430 20.3160 309° West 484 557 38,000  Level FlightAware
04:22AM 47.4000 20.2100 308° West 486 559 38,000  Level FlightAware
04:23AM 47.4650 20.0900 309° West 488 562 38,000  Level FlightAware
04:23AM 47.5210 19.9860 309° West 489 563 38,000  Level FlightAware
04:24AM 47.5730 19.8880 308° West 488 562 38,000  Level FlightAware
04:25AM 47.6430 19.7700 311° West 489 563 38,000  Level FlightAware
04:25AM 47.7050 19.6770 315° West 488 562 38,000  Level FlightAware
04:26AM 47.7800 19.5670 315° West 488 562 38,000  Level FlightAware
04:27AM 47.8310 19.4900 315° West 488 562 38,000  Level FlightAware
04:27AM 47.9070 19.3770 315° West 487 560 38,000  Level FlightAware
04:28AM 47.9770 19.2720 315° West 488 562 38,000  Level FlightAware
04:29AM 48.0400 19.1760 314° West 488 562 38,000  Level FlightAware
04:29AM 48.1010 19.0770 313° West 489 563 38,000  Level FlightAware
04:30AM 48.1670 18.9640 311° West 490 564 38,000  Level FlightAware
04:31AM 48.2270 18.8570 310° West 491 565 38,000  Level FlightAware
04:32AM 48.2940 18.7400 311° West 491 565 38,000  Level FlightAware
04:32AM 48.3520 18.6370 310° West 489 563 38,000  Level FlightAware
04:33AM 48.4080 18.5380 310° West 488 562 38,000  Level FlightAware
04:34AM 48.4730 18.4210 310° West 487 560 38,000  Level FlightAware
04:34AM 48.5290 18.3200 310° West 485 558 38,000  Level FlightAware
04:35AM 48.5980 18.1970 310° West 484 557 38,000  Level FlightAware
04:36AM 48.6550 18.0930 310° West 485 558 38,000  Level FlightAware
04:37AM 48.7170 17.9800 310° West 487 560 38,000  Level FlightAware
04:37AM 48.7740 17.8770 310° West 487 560 38,000  Level FlightAware
04:38AM 48.8330 17.7690 310° West 488 562 38,000  Level FlightAware
04:39AM 48.8910 17.6380 304° West 485 558 38,000  Level FlightAware
04:39AM 48.9340 17.5190 299° West 485 558 38,000  Level FlightAware
04:40AM 48.9770 17.3990 299° West 485 558 38,000  Level FlightAware
04:41AM 49.0240 17.2690 299° West 488 562 38,000  Level FlightAware
04:41AM 49.0670 17.1480 299° West 487 560 38,000  Level FlightAware
04:42AM 49.1100 17.0270 299° West 487 560 38,000  Level FlightAware
04:43AM 49.1590 16.8880 298° West 485 558 38,000  Level FlightAware
04:43AM 49.2010 16.7670 298° West 484 557 38,000  Level FlightAware
04:44AM 49.2470 16.6380 299° West 481 554 38,000  Level FlightAware
04:45AM 49.2880 16.5190 298° West 478 550 38,000  Level FlightAware
04:46AM 49.3300 16.3970 298° West 476 548 38,000  Level FlightAware
04:46AM 49.3730 16.2720 298° West 475 547 38,000  Level FlightAware
04:47AM 49.4150 16.1520 298° West 474 545 38,000  Level FlightAware
04:48AM 49.4590 16.0230 298° West 472 543 38,000  Level FlightAware
04:48AM 49.4980 15.9070 297° West 471 542 38,000  Level FlightAware
04:49AM 49.5400 15.7820 297° West 471 542 38,000  Level FlightAware
04:50AM 49.5750 15.6790 298° West 471 542 38,000  Level FlightAware
04:52AM 49.6981 15.3954 304° West  Level Estimated
04:52AM 49.7340 15.2020 304° West 466 536 38,000  Level FlightAware
04:53AM 49.7790 15.0630 297° West 468 539 38,000  Level FlightAware
04:54AM 49.8190 14.9430 297° West 469 540 38,000  Level FlightAware
04:54AM 49.8600 14.8150 296° West 471 542 38,000  Level FlightAware
04:55AM 49.9000 14.6910 297° West 470 541 38,000  Level FlightAware
04:56AM 49.9390 14.5690 296° West 471 542 38,000  Level FlightAware
04:57AM 49.9800 14.4410 297° West 470 541 38,000  Level FlightAware
04:57AM 50.0210 14.3120 296° West 470 541 38,000  Level FlightAware
04:58AM 50.0640 14.1800 297° West 469 540 38,000  Level FlightAware
04:59AM 50.1020 14.0590 296° West 470 541 38,000  Level FlightAware
04:59AM 50.1360 13.9510 296° West 470 541 38,000  Level FlightAware
05:00AM 50.1830 13.8000 296° West 469 540 38,000  Level FlightAware
05:01AM 50.2220 13.6740 296° West 470 541 38,000  Level FlightAware
05:01AM 50.2640 13.5360 296° West 467 537 38,000  Level FlightAware
05:02AM 50.3020 13.4140 296° West 466 536 38,000  Level FlightAware
05:03AM 50.3390 13.2920 295° West 466 536 38,000  Level FlightAware
05:04AM 50.3790 13.1610 296° West 467 537 38,000  Level FlightAware
05:04AM 50.4170 13.0370 296° West 469 540 38,000  Level FlightAware
05:05AM 50.4580 12.9000 295° West 470 541 38,000  Level FlightAware
05:06AM 50.4920 12.7850 295° West 470 541 38,000  Level FlightAware
05:06AM 50.5320 12.6520 295° West 468 539 38,000  Level FlightAware
05:07AM 50.5740 12.5110 295° West 468 539 38,000  Level FlightAware
05:08AM 50.6090 12.3920 295° West 468 539 38,000  Level FlightAware
05:08AM 50.6490 12.2550 295° West 468 539 38,000  Level FlightAware
05:09AM 50.6900 12.1140 295° West 470 541 38,000  Level FlightAware
05:10AM 50.7280 11.9840 295° West 470 541 38,000  Level FlightAware
05:11AM 50.7630 11.8600 294° West 471 542 38,000  Level FlightAware
05:11AM 50.8050 11.7170 295° West 471 542 38,000  Level FlightAware
05:12AM 50.8410 11.5910 294° West 473 544 38,000  Level FlightAware
05:13AM 50.8770 11.4630 294° West 473 544 38,000  Level FlightAware
05:13AM 50.9100 11.3470 294° West 474 545 38,000  Level FlightAware
05:14AM 50.9510 11.2010 294° West 474 545 38,000  Level FlightAware
05:15AM 50.9870 11.0710 294° West 474 545 38,000  Level FlightAware
05:15AM 51.0270 10.9270 294° West 473 544 38,000  Level FlightAware
05:16AM 51.0620 10.8010 294° West 472 543 38,000  Level FlightAware
05:17AM 51.1000 10.6620 294° West 471 542 38,000  Level FlightAware
05:18AM 51.1340 10.5340 293° West 470 541 38,000  Level FlightAware
05:18AM 51.1620 10.4330 294° West 473 544 38,000  Level FlightAware
05:19AM 51.2090 10.2600 294° West 472 543 38,000  Level FlightAware
05:20AM 51.2420 10.1420 294° West 470 541 38,000  Level FlightAware
05:20AM 51.2780 10.0100 294° West 469 540 38,000  Level FlightAware
05:21AM 51.3150 9.8760 294° West 470 541 38,000  Level FlightAware
05:22AM 51.3490 9.7490 293° West 470 541 38,000  Level FlightAware
05:22AM 51.3870 9.6090 294° West 470 541 38,000  Level FlightAware
05:23AM 51.4210 9.4810 293° West 470 541 38,000  Level FlightAware
05:24AM 51.4650 9.3190 294° West 473 544 38,000  Level FlightAware
05:25AM 51.4990 9.1900 293° West 474 545 38,000  Level FlightAware
05:25AM 51.5350 9.0540 293° West 474 545 38,000  Level FlightAware
05:26AM 51.5710 8.9190 293° West 476 548 38,000  Level FlightAware
05:27AM 51.6060 8.7870 293° West 474 545 38,000  Level FlightAware
05:27AM 51.6450 8.6360 293° West 471 542 38,000  Level FlightAware
05:28AM 51.6760 8.5120 292° West 469 540 38,000  Level FlightAware
05:29AM 51.7090 8.3790 292° West 466 536 38,000  Level FlightAware
05:29AM 51.7440 8.2400 292° West 463 533 38,000  Level FlightAware
05:30AM 51.7730 8.1260 292° West 466 536 38,000  Level FlightAware
05:31AM 51.8120 7.9700 292° West 468 539 38,000  Level FlightAware
05:32AM 51.8450 7.8370 292° West 467 537 38,000  Level FlightAware
05:32AM 51.8760 7.7090 291° West 464 534 38,000  Level FlightAware
05:33AM 51.9130 7.5590 292° West 462 532 38,000  Level FlightAware
05:34AM 51.9430 7.4330 291° West 462 532 38,000  Level FlightAware
05:34AM 51.9770 7.2890 291° West 459 528 38,000  Level FlightAware
05:35AM 52.0080 7.1600 291° West 460 529 38,000  Level FlightAware
05:36AM 52.0390 7.0310 291° West 461 531 38,000  Level FlightAware
05:36AM 52.0610 6.9350 290° West 463 533 38,000  Level FlightAware
05:37AM 52.1100 6.7960 300° West 469 540 38,000  Level FlightAware
05:38AM 52.1480 6.6800 298° West 470 541 38,000  Level FlightAware
05:38AM 52.1870 6.5430 295° West 471 542 38,000  Level FlightAware
05:39AM 52.2260 6.4010 294° West 471 542 38,000  Level FlightAware
05:40AM 52.2610 6.2740 294° West 472 543 38,000  Level FlightAware
05:40AM 52.3020 6.1200 294° West 471 542 38,000  Level FlightAware
05:41AM 52.3370 5.9920 294° West 471 542 38,000  Level FlightAware
05:42AM 52.3720 5.8600 294° West 470 541 38,000  Level FlightAware
05:43AM 52.4100 5.7180 294° West 470 541 38,000 -1,380 Level FlightAware
05:43AM 52.4262 5.6369 294° West 478 550 36,500  Descending FlightAware UK
05:43AM 52.4440 5.5880 294° West 471 542 38,000  Climbing FlightAware
05:43AM 52.4594 5.5204 294° West 478 550 36,500 -2,220 Descending FlightAware UK
05:44AM 52.4797 5.4416 293° West 480 552 36,500 3,180 Level FlightAware UK
05:44AM 52.4830 5.4390 293° West 471 542 38,000 2,040 Climbing FlightAware
05:45AM 52.5180 5.3050 293° West 471 542 38,000 -1,140 Level FlightAware
05:45AM 52.5503 5.1659 293° West 478 550 36,500  Descending FlightAware UK
05:45AM 52.5550 5.1630 293° West 471 542 38,000  Climbing FlightAware
05:46AM 52.5716 5.0876 293° West 480 552 36,500 -2,460 Descending FlightAware UK
05:46AM 52.5888 5.0297 296° West 478 550 36,500 4,260 Level FlightAware UK
05:46AM 52.5900 5.0310 296° West 470 541 38,000  Climbing FlightAware
05:47AM 52.6217 4.9126 296° West 478 550 36,500  Descending FlightAware UK
05:47AM 52.6230 4.9020 296° West 471 542 38,000  Climbing FlightAware
05:47AM 52.6414 4.8332 296° West 482 555 36,500 -2,580 Descending FlightAware UK
05:47AM 52.6564 4.7738 293° West 482 555 36,500 3,180 Level FlightAware UK
05:47AM 52.6620 4.7460 293° West 469 540 38,000  Climbing FlightAware
05:48AM 52.6861 4.6551 293° West 478 550 36,500  Descending FlightAware UK
05:48AM 52.6960 4.6150 293° West 471 542 38,000  Climbing FlightAware
05:48AM 52.7108 4.5568 293° West 480 552 36,500  Descending FlightAware UK
05:49AM 52.7320 4.4710 293° West 471 542 38,000 1,260 Climbing FlightAware
05:50AM 52.7650 4.3380 292° West 470 541 38,000  Level FlightAware
05:50AM 52.7980 4.2080 293° West 468 539 38,000 -1,440 Level FlightAware
05:51AM 52.8193 4.1195 293° West 476 548 36,500  Descending FlightAware UK
05:51AM 52.8360 4.0530 293° West 466 536 38,000 1,440 Climbing FlightAware
05:52AM 52.8680 3.9220 292° West 466 536 38,000 -1,620 Level FlightAware
05:52AM 52.8828 3.8624 292° West 476 548 36,500 -2,700 Descending FlightAware UK
05:52AM 52.8973 3.8032 292° West 484 557 36,500 3,060 Level FlightAware UK
05:52AM 52.9040 3.7750 292° West 467 537 38,000  Climbing FlightAware
05:53AM 52.9309 3.6645 292° West 484 557 36,500  Descending FlightAware UK
05:53AM 52.9360 3.6440 292° West 462 532 38,000  Climbing FlightAware
05:53AM 52.9501 3.5856 292° West 478 550 36,500 -2,760 Descending FlightAware UK
05:54AM 52.9642 3.5265 292° West 476 548 36,500 3,600 Level FlightAware UK
05:54AM 52.9640 3.5260 292° West 461 531 38,000  Climbing FlightAware
05:54AM 52.9875 3.4290 292° West 478 550 36,500  Descending FlightAware UK
05:54AM 53.0030 3.3640 292° West 461 531 38,000 1,440 Climbing FlightAware
05:55AM 53.0350 3.2320 292° West 462 532 38,000  Level FlightAware
05:56AM 53.0660 3.0860 290° West 462 532 38,000 -1,200 Level FlightAware
05:56AM 53.0877 2.9712 290° West 478 550 36,500  Descending FlightAware UK
05:57AM 53.0910 2.9500 290° West 463 533 38,000 1,800 Climbing FlightAware
05:57AM 53.1140 2.8140 286° West 462 532 38,000 -1,620 Level FlightAware
05:57AM 53.1251 2.7453 286° West 480 552 36,500 -2,220 Descending FlightAware UK
05:58AM 53.1381 2.6632 285° West 478 550 36,500 3,180 Level FlightAware UK
05:58AM 53.1390 2.6560 285° West 461 531 38,000  Climbing FlightAware
05:58AM 53.1512 2.5810 285° West 478 550 36,500 -2,460 Descending FlightAware UK
05:59AM 53.1607 2.5209 285° West 480 552 36,500 4,500 Level FlightAware UK
05:59AM 53.1610 2.5190 285° West 461 531 38,000  Climbing FlightAware
05:59AM 53.1804 2.3971 285° West 478 550 36,500  Descending FlightAware UK
05:59AM 53.1860 2.3660 285° West 459 528 38,000  Climbing FlightAware
06:00AM 53.2034 2.2551 285° West 476 548 36,500  Descending FlightAware UK
06:00AM 53.2070 2.2320 285° West 459 528 38,000  Climbing FlightAware
06:00AM 53.2198 2.1532 285° West 474 545 36,500  Descending FlightAware UK
06:01AM 53.2300 2.0910 285° West 459 528 38,000  Climbing FlightAware
06:01AM 53.2393 2.0303 285° West 474 545 36,500  Descending FlightAware UK
06:01AM 53.2540 1.9370 285° West 460 529 38,000  Climbing FlightAware
06:02AM 53.2648 1.8663 285° West 476 548 36,500  Descending FlightAware UK
06:02AM 53.2780 1.7820 285° West 461 531 38,000 2,220 Climbing FlightAware
06:02AM 53.2863 1.7282 284° West 463 533 38,000  Level FlightAware ADS-B
06:03AM 53.2993 1.6439 284° West 463 533 38,000 -2,100 Level FlightAware ADS-B
06:03AM 53.3078 1.5752 284° West 478 550 36,500 -240 Descending FlightAware UK
06:03AM 53.3118 1.5335 284° West 461 531 37,900 -600 Climbing FlightAware ADS-B
06:04AM 53.3221 1.4281 284° West 482 555 36,100 -600 Descending FlightAware UK
06:04AM 53.3286 1.3581 284° West 464 534 37,400 900 Climbing FlightAware ADS-B
06:05AM 53.3384 1.2449 278° West 461 531 36,900 -960 Descending FlightAware ADS-B
06:05AM 53.3491 1.1179 278° West 458 527 36,300 -2,520 Descending FlightAware ADS-B
06:06AM 53.3760 0.9739 278° West 464 534 33,600 -1,800 Descending FlightAware UK
06:06AM 53.3860 0.9220 278° West 444 511 34,500 -600 Climbing FlightAware
06:07AM 53.4080 0.8120 289° West 432 497 33,100 -3,480 Descending FlightAware
06:08AM 53.4327 0.6822 289° West 474 545 30,400 -2,400 Descending FlightAware UK
06:08AM 53.4360 0.6610 289° West 462 532 31,300 -4,020 Climbing FlightAware
06:08AM 53.4477 0.5996 289° West 484 557 28,800 -2,700 Descending FlightAware UK
06:08AM 53.4610 0.5240 289° West 453 521 29,500 -240 Climbing FlightAware
06:09AM 53.4754 0.4300 284° West 444 511 28,600 -1,620 Descending FlightAware ADS-B
06:09AM 53.4885 0.3273 282° West 433 498 28,000 -600 Descending FlightAware ADS-B
06:10AM 53.5033 0.2143 282° West 432 497 28,000  Level FlightAware ADS-B
06:10AM 53.5170 0.1136 283° West 433 498 28,000 -1,800 Level FlightAware ADS-B
06:11AM 53.5264 0.0449 283° West 458 527 26,500  Descending FlightAware UK
06:11AM 53.5321 0.0041 283° West 436 502 28,000  Climbing FlightAware ADS-B
06:11AM 53.5427 -0.0727 283° West 460 529 26,500  Descending FlightAware UK
06:12AM 53.5474 -0.1074 283° West 437 503 28,000  Climbing FlightAware ADS-B
06:12AM 53.5615 -0.2116 283° West 460 529 26,500  Descending FlightAware UK
06:13AM 53.5750 -0.3160 283° West 436 502 28,000 1,980 Climbing FlightAware
06:13AM 53.5809 -0.3586 283° West 437 503 28,000 -3,480 Level FlightAware ADS-B
06:13AM 53.5877 -0.4097 283° West 460 529 26,500  Descending FlightAware UK
06:13AM 53.5940 -0.4600 283° West 440 506 28,000 2,160 Climbing FlightAware
06:14AM 53.6056 -0.5465 283° West 436 502 28,000 -2,220 Level FlightAware ADS-B
06:14AM 53.6142 -0.6126 283° West 480 552 26,500  Descending FlightAware UK
06:14AM 53.6196 -0.6539 283° West 454 522 28,000  Climbing FlightAware ADS-B
06:15AM 53.6354 -0.7775 283° West 480 552 26,500  Descending FlightAware UK
06:15AM 53.6467 -0.8650 283° West 454 522 28,000  Climbing FlightAware ADS-B
06:16AM 53.6592 -0.9630 283° West 480 552 26,500  Descending FlightAware UK
06:16AM 53.6670 -1.0240 283° West 451 519 28,000 3,000 Climbing FlightAware
06:16AM 53.6717 -1.0630 282° West 452 520 28,000 -2,940 Level FlightAware ADS-B
06:17AM 53.6822 -1.1478 282° West 480 552 26,500  Descending FlightAware UK
06:17AM 53.6860 -1.1790 282° West 449 517 28,000  Climbing FlightAware
06:17AM 53.7000 -1.2914 282° West 480 552 26,500  Descending FlightAware UK
06:18AM 53.7054 -1.3342 282° West 450 518 28,000  Climbing FlightAware ADS-B
06:18AM 53.7173 -1.3917 282° West 480 552 26,500 -2,580 Descending FlightAware UK
06:18AM 53.7368 -1.4444 302° West 474 545 26,500 -540 Level FlightAware UK
06:18AM 53.7620 -1.4888 314° West 460 529 26,200 1,380 Descending FlightAware UK
06:19AM 53.7820 -1.5130 314° West 433 498 27,300 -660 Climbing FlightAware
06:19AM 53.8530 -1.5830 330° Northwest 428 493 25,600 -2,400 Descending FlightAware
06:20AM 53.9270 -1.6540 331° Northwest 422 486 23,900 -3,900 Descending FlightAware
06:20AM 53.9658 -1.6924 331° Northwest 436 502 21,500 -5,040 Descending FlightAware UK
06:21AM 53.9976 -1.7165 336° Northwest 430 495 20,800 2,280 Descending FlightAware UK
06:21AM 53.9960 -1.7150 336° Northwest 417 480 22,300 -2,520 Climbing FlightAware
06:21AM 54.0394 -1.7490 336° Northwest 424 488 19,800 -2,280 Descending FlightAware UK
06:22AM 54.0750 -1.7760 336° Northwest 408 470 20,600 -600 Climbing FlightAware
06:22AM 54.1410 -1.8230 337° Northwest 405 466 19,200 -3,780 Descending FlightAware
06:23AM 54.1987 -1.8316 337° Northwest 402 463 16,500 -2,280 Descending FlightAware UK
06:23AM 54.2120 -1.8280 337° Northwest 410 472 17,700 -480 Climbing FlightAware
06:24AM 54.2940 -1.8010 11° North 406 467 16,100 -3,360 Descending FlightAware
06:24AM 54.3326 -1.7875 11° North 386 444 14,500 -180 Descending FlightAware UK
06:24AM 54.3590 -1.7790 11° North 401 461 16,000 -360 Climbing FlightAware
06:24AM 54.3652 -1.7764 11° North 390 449 14,400 -5,700 Descending FlightAware UK
06:24AM 54.3977 -1.7654 11° North 384 442 14,200 -1,740 Descending FlightAware UK
06:25AM 54.4408 -1.7514 11° North 382 440 13,200 720 Descending FlightAware UK
06:25AM 54.4480 -1.7500 11° North 396 456 14,600 -840 Climbing FlightAware
06:26AM 54.5290 -1.7250 10° North 402 463 12,500 -3,840 Descending FlightAware
06:26AM 54.5940 -1.7057 10° North 374 430 9,700 -1,980 Descending FlightAware UK
06:26AM 54.6040 -1.7020 10° North 391 450 11,200 -1,620 Climbing FlightAware
06:27AM 54.6464 -1.6890 10° North 366 421 8,900 -4,380 Descending FlightAware UK
06:27AM 54.6780 -1.6794 10° North 364 419 8,300 2,040 Descending FlightAware UK
06:27AM 54.6820 -1.6780 10° North 380 437 9,700 -2,040 Climbing FlightAware
06:27AM 54.7196 -1.6667 10° North 358 412 7,500 -1,680 Descending FlightAware UK
06:28AM 54.7260 -1.6640 10° North 375 432 9,000 1,800 Climbing FlightAware
06:28AM 54.7760 -1.6410 15° North 353 406 8,600 -3,420 Descending FlightAware
06:28AM 54.8040 -1.6177 15° North 316 364 6,300 -1,920 Descending FlightAware UK
06:28AM 54.8070 -1.6150 15° North 329 379 7,800 3,000 Climbing FlightAware
06:29AM 54.8310 -1.5950 26° Northeast 307 353 7,400 -1,380 Descending FlightAware
06:29AM 54.8570 -1.5740 25° Northeast 283 326 6,900 -3,600 Descending FlightAware
06:29AM 54.8845 -1.5487 25° Northeast 252 290 4,800 -1,800 Descending FlightAware UK
06:30AM 54.8930 -1.5400 25° Northeast 264 304 6,000 -1,860 Climbing FlightAware
06:30AM 54.9217 -1.5100 25° Northeast 234 269 3,700 -1,620 Descending FlightAware UK
06:30AM 54.9210 -1.5110 25° Northeast 256 295 5,200 1,680 Climbing FlightAware
06:31AM 54.9540 -1.4770 31° Northeast 254 292 4,700 -2,940 Descending FlightAware
06:31AM 54.9758 -1.4542 31° Northeast 216 249 2,800 -1,200 Descending FlightAware UK
06:31AM 54.9790 -1.4510 31° Northeast 236 272 4,200 2,820 Climbing FlightAware
06:31AM 54.9910 -1.4380 32° Northeast 230 265 3,800 -1,980 Descending FlightAware
06:32AM 55.0150 -1.4140 30° Northeast 228 262 2,900 -3,600 Descending FlightAware
06:32AM 55.0370 -1.4104 30° Northeast 198 228 1,100 -540 Descending FlightAware UK
06:32AM 55.0500 -1.4140 30° Northeast 196 226 2,600 2,220 Climbing FlightAware
06:33AM 55.0670 -1.4210 347° North 193 222 2,400 -2,820 Descending FlightAware
06:33AM 55.0874 -1.4383 347° North 1 1 500 -2,220 Descending FlightAware UK
06:34AM 55.0925 -1.4746 284° West 1 1 400 1,800 Descending FlightAware UK
06:34AM 55.0890 -1.4960 284° West 154 177 2,000  Climbing FlightAware
06:34AM 55.0820 -1.5290 284° West 1 1 400  Descending FlightAware UK
06:35AM 55.0780 -1.5390 284° West 143 165 2,000 1,920 Climbing FlightAware
06:35AM 55.0710 -1.5640 244° Southwest 134 154 1,600 -900 Descending FlightAware
06:35AM 55.0690 -1.5720 246° West 128 147 1,500 -720 Descending FlightAware
06:36AM 55.0500 -1.6430 245° Southwest 128 147 600 -600 Descending FlightAware
06:37AM 55.0430 -1.6720 247° West 131 151 500 -180 Descending FlightAware